sensor_id;sensor_type;location;lat;lon;timestamp;temperature;humidity
71206;SHT31;58935;54.498;18.544;2023-02-01T00:02:00;3.97;82.30
71206;SHT31;58935;54.498;18.544;2023-02-01T00:04:26;3.97;82.33
71206;SHT31;58935;54.498;18.544;2023-02-01T00:06:51;3.97;82.35
71206;SHT31;58935;54.498;18.544;2023-02-01T00:09:17;3.96;82.51
71206;SHT31;58935;54.498;18.544;2023-02-01T00:11:45;3.95;82.66
71206;SHT31;58935;54.498;18.544;2023-02-01T00:14:11;3.93;82.74
71206;SHT31;58935;54.498;18.544;2023-02-01T00:16:36;3.92;82.67
71206;SHT31;58935;54.498;18.544;2023-02-01T00:19:06;3.90;82.59
71206;SHT31;58935;54.498;18.544;2023-02-01T00:21:41;3.89;82.60
71206;SHT31;58935;54.498;18.544;2023-02-01T00:24:09;3.89;82.63
71206;SHT31;58935;54.498;18.544;2023-02-01T00:26:40;3.88;82.53
71206;SHT31;58935;54.498;18.544;2023-02-01T00:29:09;3.92;82.14
71206;SHT31;58935;54.498;18.544;2023-02-01T00:31:38;3.95;81.63
71206;SHT31;58935;54.498;18.544;2023-02-01T00:34:04;3.99;81.12
71206;SHT31;58935;54.498;18.544;2023-02-01T00:36:30;4.04;81.00
71206;SHT31;58935;54.498;18.544;2023-02-01T00:38:56;4.05;80.52
71206;SHT31;58935;54.498;18.544;2023-02-01T00:41:21;4.06;80.69
71206;SHT31;58935;54.498;18.544;2023-02-01T00:43:48;4.05;80.81
71206;SHT31;58935;54.498;18.544;2023-02-01T00:46:15;4.01;80.98
71206;SHT31;58935;54.498;18.544;2023-02-01T00:48:42;3.97;81.18
71206;SHT31;58935;54.498;18.544;2023-02-01T00:51:13;3.93;81.17
71206;SHT31;58935;54.498;18.544;2023-02-01T00:53:41;3.92;81.05
71206;SHT31;58935;54.498;18.544;2023-02-01T00:56:09;3.93;80.88
71206;SHT31;58935;54.498;18.544;2023-02-01T00:58:35;3.94;80.47
71206;SHT31;58935;54.498;18.544;2023-02-01T01:01:09;3.96;80.28
71206;SHT31;58935;54.498;18.544;2023-02-01T01:03:45;3.99;80.14
71206;SHT31;58935;54.498;18.544;2023-02-01T01:06:15;4.01;80.45
71206;SHT31;58935;54.498;18.544;2023-02-01T01:08:42;4.03;80.82
71206;SHT31;58935;54.498;18.544;2023-02-01T01:11:10;4.03;81.24
71206;SHT31;58935;54.498;18.544;2023-02-01T01:13:37;4.01;81.52
71206;SHT31;58935;54.498;18.544;2023-02-01T01:16:03;4.00;81.97
71206;SHT31;58935;54.498;18.544;2023-02-01T01:18:30;3.96;82.17
71206;SHT31;58935;54.498;18.544;2023-02-01T01:20:57;3.91;82.45
71206;SHT31;58935;54.498;18.544;2023-02-01T01:23:23;3.86;82.43
71206;SHT31;58935;54.498;18.544;2023-02-01T01:25:49;3.81;82.73
71206;SHT31;58935;54.498;18.544;2023-02-01T01:28:17;3.74;83.06
71206;SHT31;58935;54.498;18.544;2023-02-01T01:30:43;3.66;83.23
71206;SHT31;58935;54.498;18.544;2023-02-01T01:33:08;3.58;83.36
71206;SHT31;58935;54.498;18.544;2023-02-01T01:35:34;3.53;83.56
71206;SHT31;58935;54.498;18.544;2023-02-01T01:38:00;3.51;83.70
71206;SHT31;58935;54.498;18.544;2023-02-01T01:40:27;3.47;83.90
71206;SHT31;58935;54.498;18.544;2023-02-01T01:42:53;3.44;84.02
71206;SHT31;58935;54.498;18.544;2023-02-01T01:45:23;3.40;84.11
71206;SHT31;58935;54.498;18.544;2023-02-01T01:47:53;3.38;84.22
71206;SHT31;58935;54.498;18.544;2023-02-01T01:50:29;3.37;84.37
71206;SHT31;58935;54.498;18.544;2023-02-01T01:53:04;3.36;84.32
71206;SHT31;58935;54.498;18.544;2023-02-01T01:55:34;3.39;84.23
71206;SHT31;58935;54.498;18.544;2023-02-01T01:58:04;3.43;84.13
71206;SHT31;58935;54.498;18.544;2023-02-01T02:00:33;3.46;83.92
71206;SHT31;58935;54.498;18.544;2023-02-01T02:03:03;3.52;83.79
71206;SHT31;58935;54.498;18.544;2023-02-01T02:05:36;3.55;83.74
71206;SHT31;58935;54.498;18.544;2023-02-01T02:08:04;3.59;83.59
71206;SHT31;58935;54.498;18.544;2023-02-01T02:10:29;3.63;83.44
71206;SHT31;58935;54.498;18.544;2023-02-01T02:12:59;3.66;83.19
71206;SHT31;58935;54.498;18.544;2023-02-01T02:15:24;3.70;83.00
71206;SHT31;58935;54.498;18.544;2023-02-01T02:20:29;3.76;83.06
71206;SHT31;58935;54.498;18.544;2023-02-01T02:28:25;3.76;83.21
71206;SHT31;58935;54.498;18.544;2023-02-01T02:31:54;3.72;83.44
71206;SHT31;58935;54.498;18.544;2023-02-01T02:34:25;3.68;83.43
71206;SHT31;58935;54.498;18.544;2023-02-01T02:37:03;3.66;83.28
71206;SHT31;58935;54.498;18.544;2023-02-01T02:44:48;3.66;82.86
71206;SHT31;58935;54.498;18.544;2023-02-01T02:47:25;3.69;82.53
71206;SHT31;58935;54.498;18.544;2023-02-01T02:50:02;3.70;82.39
71206;SHT31;58935;54.498;18.544;2023-02-01T02:52:42;3.70;82.35
71206;SHT31;58935;54.498;18.544;2023-02-01T02:55:16;3.73;82.16
71206;SHT31;58935;54.498;18.544;2023-02-01T02:57:42;3.74;81.96
71206;SHT31;58935;54.498;18.544;2023-02-01T03:00:12;3.75;81.86
71206;SHT31;58935;54.498;18.544;2023-02-01T03:02:45;3.76;81.55
71206;SHT31;58935;54.498;18.544;2023-02-01T03:05:16;3.77;81.32
71206;SHT31;58935;54.498;18.544;2023-02-01T03:07:49;3.79;81.25
71206;SHT31;58935;54.498;18.544;2023-02-01T03:13:14;3.83;81.43
71206;SHT31;58935;54.498;18.544;2023-02-01T03:15:50;3.87;81.70
71206;SHT31;58935;54.498;18.544;2023-02-01T03:18:28;3.88;81.83
71206;SHT31;58935;54.498;18.544;2023-02-01T03:20:58;3.90;82.13
71206;SHT31;58935;54.498;18.544;2023-02-01T03:23:29;3.89;82.69
71206;SHT31;58935;54.498;18.544;2023-02-01T03:25:59;3.88;82.99
71206;SHT31;58935;54.498;18.544;2023-02-01T03:28:29;3.84;82.74
71206;SHT31;58935;54.498;18.544;2023-02-01T03:30:58;3.81;82.93
71206;SHT31;58935;54.498;18.544;2023-02-01T03:33:25;3.78;83.13
71206;SHT31;58935;54.498;18.544;2023-02-01T03:35:55;3.75;83.43
71206;SHT31;58935;54.498;18.544;2023-02-01T03:41:08;3.72;83.88
71206;SHT31;58935;54.498;18.544;2023-02-01T03:43:46;3.73;83.87
71206;SHT31;58935;54.498;18.544;2023-02-01T03:46:23;3.77;83.85
71206;SHT31;58935;54.498;18.544;2023-02-01T03:48:59;3.84;83.58
71206;SHT31;58935;54.498;18.544;2023-02-01T03:51:28;3.89;83.60
71206;SHT31;58935;54.498;18.544;2023-02-01T03:53:54;3.94;83.52
71206;SHT31;58935;54.498;18.544;2023-02-01T03:56:22;3.97;83.53
71206;SHT31;58935;54.498;18.544;2023-02-01T03:58:51;4.02;83.37
71206;SHT31;58935;54.498;18.544;2023-02-01T04:01:19;4.03;83.55
71206;SHT31;58935;54.498;18.544;2023-02-01T04:03:45;4.03;83.59
71206;SHT31;58935;54.498;18.544;2023-02-01T04:06:10;4.05;83.30
71206;SHT31;58935;54.498;18.544;2023-02-01T04:08:38;4.07;83.28
71206;SHT31;58935;54.498;18.544;2023-02-01T04:11:04;4.09;83.14
71206;SHT31;58935;54.498;18.544;2023-02-01T04:13:29;4.10;83.19
71206;SHT31;58935;54.498;18.544;2023-02-01T04:15:55;4.09;83.13
71206;SHT31;58935;54.498;18.544;2023-02-01T04:18:20;4.09;83.32
71206;SHT31;58935;54.498;18.544;2023-02-01T04:20:45;4.08;83.32
71206;SHT31;58935;54.498;18.544;2023-02-01T04:23:11;4.07;83.35
71206;SHT31;58935;54.498;18.544;2023-02-01T04:25:37;4.05;83.21
71206;SHT31;58935;54.498;18.544;2023-02-01T04:28:02;4.03;83.04
71206;SHT31;58935;54.498;18.544;2023-02-01T04:30:28;3.98;82.98
71206;SHT31;58935;54.498;18.544;2023-02-01T04:32:54;3.92;83.37
71206;SHT31;58935;54.498;18.544;2023-02-01T04:35:19;3.86;83.19
71206;SHT31;58935;54.498;18.544;2023-02-01T04:37:45;3.82;82.98
71206;SHT31;58935;54.498;18.544;2023-02-01T04:40:11;3.81;82.98
71206;SHT31;58935;54.498;18.544;2023-02-01T04:42:36;3.77;82.98
71206;SHT31;58935;54.498;18.544;2023-02-01T04:45:02;3.75;82.99
71206;SHT31;58935;54.498;18.544;2023-02-01T04:47:28;3.75;82.91
71206;SHT31;58935;54.498;18.544;2023-02-01T04:49:53;3.77;82.88
71206;SHT31;58935;54.498;18.544;2023-02-01T04:52:19;3.78;82.96
71206;SHT31;58935;54.498;18.544;2023-02-01T04:54:44;3.80;83.08
71206;SHT31;58935;54.498;18.544;2023-02-01T04:57:10;3.82;83.07
71206;SHT31;58935;54.498;18.544;2023-02-01T04:59:38;3.83;83.03
71206;SHT31;58935;54.498;18.544;2023-02-01T05:02:04;3.84;83.38
71206;SHT31;58935;54.498;18.544;2023-02-01T05:04:29;3.82;83.29
71206;SHT31;58935;54.498;18.544;2023-02-01T05:06:55;3.82;83.39
71206;SHT31;58935;54.498;18.544;2023-02-01T05:09:20;3.83;83.13
71206;SHT31;58935;54.498;18.544;2023-02-01T05:11:46;3.85;83.17
71206;SHT31;58935;54.498;18.544;2023-02-01T05:14:15;3.84;83.05
71206;SHT31;58935;54.498;18.544;2023-02-01T05:16:40;3.86;83.00
71206;SHT31;58935;54.498;18.544;2023-02-01T05:19:06;3.88;82.97
71206;SHT31;58935;54.498;18.544;2023-02-01T05:21:32;3.92;83.02
71206;SHT31;58935;54.498;18.544;2023-02-01T05:23:57;3.94;83.13
71206;SHT31;58935;54.498;18.544;2023-02-01T05:26:26;3.96;83.33
71206;SHT31;58935;54.498;18.544;2023-02-01T05:28:51;3.96;83.49
71206;SHT31;58935;54.498;18.544;2023-02-01T05:31:17;3.98;83.43
71206;SHT31;58935;54.498;18.544;2023-02-01T05:33:43;3.99;83.41
71206;SHT31;58935;54.498;18.544;2023-02-01T05:36:08;4.03;83.36
71206;SHT31;58935;54.498;18.544;2023-02-01T05:38:34;4.05;83.36
71206;SHT31;58935;54.498;18.544;2023-02-01T05:40:59;4.06;83.32
71206;SHT31;58935;54.498;18.544;2023-02-01T05:43:25;4.07;83.38
71206;SHT31;58935;54.498;18.544;2023-02-01T05:45:51;4.08;83.28
71206;SHT31;58935;54.498;18.544;2023-02-01T05:48:20;4.10;83.19
71206;SHT31;58935;54.498;18.544;2023-02-01T05:50:45;4.12;83.23
71206;SHT31;58935;54.498;18.544;2023-02-01T05:53:11;4.14;83.20
71206;SHT31;58935;54.498;18.544;2023-02-01T05:55:37;4.15;83.20
71206;SHT31;58935;54.498;18.544;2023-02-01T05:58:04;4.20;82.77
71206;SHT31;58935;54.498;18.544;2023-02-01T06:00:32;4.25;82.59
71206;SHT31;58935;54.498;18.544;2023-02-01T06:03:00;4.30;82.48
71206;SHT31;58935;54.498;18.544;2023-02-01T06:05:26;4.34;82.19
71206;SHT31;58935;54.498;18.544;2023-02-01T06:07:52;4.38;81.91
71206;SHT31;58935;54.498;18.544;2023-02-01T06:10:18;4.42;81.69
71206;SHT31;58935;54.498;18.544;2023-02-01T06:12:44;4.45;81.64
71206;SHT31;58935;54.498;18.544;2023-02-01T06:15:10;4.47;81.54
71206;SHT31;58935;54.498;18.544;2023-02-01T06:17:38;4.50;81.33
71206;SHT31;58935;54.498;18.544;2023-02-01T06:20:06;4.51;81.05
71206;SHT31;58935;54.498;18.544;2023-02-01T06:22:34;4.55;81.02
71206;SHT31;58935;54.498;18.544;2023-02-01T06:25:05;4.56;81.03
71206;SHT31;58935;54.498;18.544;2023-02-01T06:27:32;4.58;80.93
71206;SHT31;58935;54.498;18.544;2023-02-01T06:29:58;4.59;81.04
71206;SHT31;58935;54.498;18.544;2023-02-01T06:32:25;4.59;81.21
71206;SHT31;58935;54.498;18.544;2023-02-01T06:34:53;4.57;81.73
71206;SHT31;58935;54.498;18.544;2023-02-01T06:37:22;4.56;81.95
71206;SHT31;58935;54.498;18.544;2023-02-01T06:39:50;4.53;82.12
71206;SHT31;58935;54.498;18.544;2023-02-01T06:42:15;4.51;82.08
71206;SHT31;58935;54.498;18.544;2023-02-01T06:44:41;4.50;82.01
71206;SHT31;58935;54.498;18.544;2023-02-01T06:47:06;4.50;82.10
71206;SHT31;58935;54.498;18.544;2023-02-01T06:49:32;4.51;82.26
71206;SHT31;58935;54.498;18.544;2023-02-01T06:51:57;4.50;82.24
71206;SHT31;58935;54.498;18.544;2023-02-01T06:54:25;4.52;81.99
71206;SHT31;58935;54.498;18.544;2023-02-01T06:56:51;4.56;81.76
71206;SHT31;58935;54.498;18.544;2023-02-01T06:59:16;4.60;81.64
71206;SHT31;58935;54.498;18.544;2023-02-01T07:01:42;4.63;81.47
71206;SHT31;58935;54.498;18.544;2023-02-01T07:04:09;4.66;81.34
71206;SHT31;58935;54.498;18.544;2023-02-01T07:06:36;4.69;81.00
71206;SHT31;58935;54.498;18.544;2023-02-01T07:09:04;4.73;80.75
71206;SHT31;58935;54.498;18.544;2023-02-01T07:11:33;4.77;80.60
71206;SHT31;58935;54.498;18.544;2023-02-01T07:13:59;4.80;80.40
71206;SHT31;58935;54.498;18.544;2023-02-01T07:16:25;4.84;80.21
71206;SHT31;58935;54.498;18.544;2023-02-01T07:18:51;4.86;79.76
71206;SHT31;58935;54.498;18.544;2023-02-01T07:21:18;4.88;79.58
71206;SHT31;58935;54.498;18.544;2023-02-01T07:23:44;4.91;79.46
71206;SHT31;58935;54.498;18.544;2023-02-01T07:26:12;4.93;79.32
71206;SHT31;58935;54.498;18.544;2023-02-01T07:28:38;4.96;79.19
71206;SHT31;58935;54.498;18.544;2023-02-01T07:31:09;4.99;79.01
71206;SHT31;58935;54.498;18.544;2023-02-01T07:33:38;5.02;78.62
71206;SHT31;58935;54.498;18.544;2023-02-01T07:36:05;5.05;77.89
71206;SHT31;58935;54.498;18.544;2023-02-01T07:38:34;5.08;78.06
71206;SHT31;58935;54.498;18.544;2023-02-01T07:41:00;5.11;77.88
71206;SHT31;58935;54.498;18.544;2023-02-01T07:43:29;5.12;78.02
71206;SHT31;58935;54.498;18.544;2023-02-01T07:45:55;5.14;78.03
71206;SHT31;58935;54.498;18.544;2023-02-01T07:48:22;5.17;77.89
71206;SHT31;58935;54.498;18.544;2023-02-01T07:50:48;5.20;77.92
71206;SHT31;58935;54.498;18.544;2023-02-01T07:53:21;5.23;77.62
71206;SHT31;58935;54.498;18.544;2023-02-01T07:55:47;5.26;77.34
71206;SHT31;58935;54.498;18.544;2023-02-01T07:58:14;5.28;76.92
71206;SHT31;58935;54.498;18.544;2023-02-01T08:00:40;5.30;76.66
71206;SHT31;58935;54.498;18.544;2023-02-01T08:03:08;5.31;76.50
71206;SHT31;58935;54.498;18.544;2023-02-01T08:05:33;5.32;76.06
71206;SHT31;58935;54.498;18.544;2023-02-01T08:07:59;5.33;76.24
71206;SHT31;58935;54.498;18.544;2023-02-01T08:10:27;5.34;75.80
71206;SHT31;58935;54.498;18.544;2023-02-01T08:12:57;5.39;75.50
71206;SHT31;58935;54.498;18.544;2023-02-01T08:15:23;5.43;75.65
71206;SHT31;58935;54.498;18.544;2023-02-01T08:17:49;5.46;75.51
71206;SHT31;58935;54.498;18.544;2023-02-01T08:20:15;5.49;75.32
71206;SHT31;58935;54.498;18.544;2023-02-01T08:22:42;5.52;74.83
71206;SHT31;58935;54.498;18.544;2023-02-01T08:25:07;5.53;74.62
71206;SHT31;58935;54.498;18.544;2023-02-01T08:27:33;5.56;74.39
71206;SHT31;58935;54.498;18.544;2023-02-01T08:29:59;5.59;74.36
71206;SHT31;58935;54.498;18.544;2023-02-01T08:32:26;5.61;74.16
71206;SHT31;58935;54.498;18.544;2023-02-01T08:34:51;5.61;74.03
71206;SHT31;58935;54.498;18.544;2023-02-01T08:37:17;5.60;73.82
71206;SHT31;58935;54.498;18.544;2023-02-01T08:39:42;5.60;73.97
71206;SHT31;58935;54.498;18.544;2023-02-01T08:42:10;5.60;74.00
71206;SHT31;58935;54.498;18.544;2023-02-01T08:44:39;5.61;73.91
71206;SHT31;58935;54.498;18.544;2023-02-01T08:47:06;5.63;73.86
71206;SHT31;58935;54.498;18.544;2023-02-01T08:49:32;5.67;73.75
71206;SHT31;58935;54.498;18.544;2023-02-01T08:54:31;5.80;73.50
71206;SHT31;58935;54.498;18.544;2023-02-01T08:56:57;5.86;73.21
71206;SHT31;58935;54.498;18.544;2023-02-01T08:59:22;5.91;72.78
71206;SHT31;58935;54.498;18.544;2023-02-01T09:01:48;5.91;72.88
71206;SHT31;58935;54.498;18.544;2023-02-01T09:04:15;5.89;73.07
71206;SHT31;58935;54.498;18.544;2023-02-01T09:06:41;5.90;72.79
71206;SHT31;58935;54.498;18.544;2023-02-01T09:09:07;5.91;72.57
71206;SHT31;58935;54.498;18.544;2023-02-01T09:11:32;5.95;72.99
71206;SHT31;58935;54.498;18.544;2023-02-01T09:13:57;5.99;73.38
71206;SHT31;58935;54.498;18.544;2023-02-01T09:16:23;6.03;73.23
71206;SHT31;58935;54.498;18.544;2023-02-01T09:18:48;6.09;73.24
71206;SHT31;58935;54.498;18.544;2023-02-01T09:21:14;6.11;73.31
71206;SHT31;58935;54.498;18.544;2023-02-01T09:23:39;6.12;73.73
71206;SHT31;58935;54.498;18.544;2023-02-01T09:26:05;6.09;74.13
71206;SHT31;58935;54.498;18.544;2023-02-01T09:28:34;6.06;74.20
71206;SHT31;58935;54.498;18.544;2023-02-01T09:31:01;6.02;74.14
71206;SHT31;58935;54.498;18.544;2023-02-01T09:33:29;5.96;74.03
71206;SHT31;58935;54.498;18.544;2023-02-01T09:35:55;5.91;74.39
71206;SHT31;58935;54.498;18.544;2023-02-01T09:38:21;5.87;74.06
71206;SHT31;58935;54.498;18.544;2023-02-01T09:40:47;5.81;73.59
71206;SHT31;58935;54.498;18.544;2023-02-01T09:45:51;5.71;74.01
71206;SHT31;58935;54.498;18.544;2023-02-01T09:48:39;5.69;73.97
71206;SHT31;58935;54.498;18.544;2023-02-01T09:53:41;5.67;73.49
71206;SHT31;58935;54.498;18.544;2023-02-01T09:58:42;5.76;73.68
71206;SHT31;58935;54.498;18.544;2023-02-01T10:01:15;5.84;73.74
71206;SHT31;58935;54.498;18.544;2023-02-01T10:03:45;5.90;73.86
71206;SHT31;58935;54.498;18.544;2023-02-01T10:11:27;5.78;75.08
71206;SHT31;58935;54.498;18.544;2023-02-01T10:14:18;5.69;75.00
71206;SHT31;58935;54.498;18.544;2023-02-01T10:17:15;5.66;74.74
71206;SHT31;58935;54.498;18.544;2023-02-01T10:20:12;5.69;74.39
71206;SHT31;58935;54.498;18.544;2023-02-01T10:22:52;5.68;74.36
71206;SHT31;58935;54.498;18.544;2023-02-01T10:25:27;5.64;74.48
71206;SHT31;58935;54.498;18.544;2023-02-01T10:27:59;5.63;75.02
71206;SHT31;58935;54.498;18.544;2023-02-01T10:30:29;5.63;74.98
71206;SHT31;58935;54.498;18.544;2023-02-01T10:33:07;5.60;74.89
71206;SHT31;58935;54.498;18.544;2023-02-01T10:35:41;5.58;74.96
71206;SHT31;58935;54.498;18.544;2023-02-01T10:38:13;5.60;74.98
71206;SHT31;58935;54.498;18.544;2023-02-01T10:40:49;5.63;74.91
71206;SHT31;58935;54.498;18.544;2023-02-01T10:43:22;5.68;74.77
71206;SHT31;58935;54.498;18.544;2023-02-01T10:45:48;5.75;74.89
71206;SHT31;58935;54.498;18.544;2023-02-01T10:48:16;5.82;74.85
71206;SHT31;58935;54.498;18.544;2023-02-01T10:55:48;6.00;73.91
71206;SHT31;58935;54.498;18.544;2023-02-01T10:58:18;6.05;74.88
71206;SHT31;58935;54.498;18.544;2023-02-01T11:00:53;6.03;75.93
71206;SHT31;58935;54.498;18.544;2023-02-01T11:06:30;5.94;73.96
71206;SHT31;58935;54.498;18.544;2023-02-01T11:09:01;5.87;73.99
71206;SHT31;58935;54.498;18.544;2023-02-01T11:11:55;5.77;74.13
71206;SHT31;58935;54.498;18.544;2023-02-01T11:19:37;5.51;76.44
71206;SHT31;58935;54.498;18.544;2023-02-01T11:22:03;5.47;77.02
71206;SHT31;58935;54.498;18.544;2023-02-01T11:24:31;5.43;77.36
71206;SHT31;58935;54.498;18.544;2023-02-01T11:27:01;5.41;77.59
71206;SHT31;58935;54.498;18.544;2023-02-01T11:29:31;5.38;77.71
71206;SHT31;58935;54.498;18.544;2023-02-01T11:32:02;5.36;77.70
71206;SHT31;58935;54.498;18.544;2023-02-01T11:34:35;5.35;77.59
71206;SHT31;58935;54.498;18.544;2023-02-01T11:39:42;5.36;77.45
71206;SHT31;58935;54.498;18.544;2023-02-01T11:42:17;5.41;77.52
71206;SHT31;58935;54.498;18.544;2023-02-01T11:44:44;5.47;77.21
71206;SHT31;58935;54.498;18.544;2023-02-01T11:47:18;5.51;76.90
71206;SHT31;58935;54.498;18.544;2023-02-01T11:49:45;5.55;77.22
71206;SHT31;58935;54.498;18.544;2023-02-01T11:53:19;5.63;77.65
71206;SHT31;58935;54.498;18.544;2023-02-01T11:55:12;5.74;77.63
71206;SHT31;58935;54.498;18.544;2023-02-01T12:03:14;5.99;76.44
71206;SHT31;58935;54.498;18.544;2023-02-01T12:05:50;6.06;75.84
71206;SHT31;58935;54.498;18.544;2023-02-01T12:08:26;6.19;76.02
71206;SHT31;58935;54.498;18.544;2023-02-01T12:11:14;6.29;74.84
71206;SHT31;58935;54.498;18.544;2023-02-01T12:17:06;6.36;74.03
71206;SHT31;58935;54.498;18.544;2023-02-01T12:20:49;6.34;73.50
71206;SHT31;58935;54.498;18.544;2023-02-01T12:23:01;6.26;73.23
71206;SHT31;58935;54.498;18.544;2023-02-01T12:28:25;6.13;73.51
71206;SHT31;58935;54.498;18.544;2023-02-01T12:31:15;6.03;73.33
71206;SHT31;58935;54.498;18.544;2023-02-01T12:33:57;5.83;73.40
71206;SHT31;58935;54.498;18.544;2023-02-01T12:39:11;5.49;74.38
71206;SHT31;58935;54.498;18.544;2023-02-01T12:41:50;5.35;75.06
71206;SHT31;58935;54.498;18.544;2023-02-01T12:44:25;5.21;75.32
71206;SHT31;58935;54.498;18.544;2023-02-01T12:46:59;5.11;76.03
71206;SHT31;58935;54.498;18.544;2023-02-01T12:52:02;4.89;77.15
71206;SHT31;58935;54.498;18.544;2023-02-01T12:54:49;4.75;77.77
71206;SHT31;58935;54.498;18.544;2023-02-01T13:02:27;4.42;79.57
71206;SHT31;58935;54.498;18.544;2023-02-01T13:05:11;4.39;80.05
71206;SHT31;58935;54.498;18.544;2023-02-01T13:07:45;4.36;80.09
71206;SHT31;58935;54.498;18.544;2023-02-01T13:10:17;4.35;80.35
71206;SHT31;58935;54.498;18.544;2023-02-01T13:12:51;4.35;80.61
71206;SHT31;58935;54.498;18.544;2023-02-01T13:15:23;4.32;80.91
71206;SHT31;58935;54.498;18.544;2023-02-01T13:17:59;4.31;80.96
71206;SHT31;58935;54.498;18.544;2023-02-01T13:20:31;4.30;81.07
71206;SHT31;58935;54.498;18.544;2023-02-01T13:25:44;4.26;81.86
71206;SHT31;58935;54.498;18.544;2023-02-01T13:28:16;4.25;82.09
71206;SHT31;58935;54.498;18.544;2023-02-01T13:44:19;5.13;81.26
71206;SHT31;58935;54.498;18.544;2023-02-01T13:46:53;5.22;80.94
71206;SHT31;58935;54.498;18.544;2023-02-01T13:49:23;5.25;80.47
71206;SHT31;58935;54.498;18.544;2023-02-01T13:51:53;5.24;80.29
71206;SHT31;58935;54.498;18.544;2023-02-01T13:56:49;5.16;80.44
71206;SHT31;58935;54.498;18.544;2023-02-01T14:07:15;4.91;80.65
71206;SHT31;58935;54.498;18.544;2023-02-01T14:09:43;4.87;80.63
71206;SHT31;58935;54.498;18.544;2023-02-01T14:14:40;4.76;80.85
71206;SHT31;58935;54.498;18.544;2023-02-01T14:17:37;4.71;81.02
71206;SHT31;58935;54.498;18.544;2023-02-01T14:20:07;4.64;81.29
71206;SHT31;58935;54.498;18.544;2023-02-01T14:22:43;4.52;81.14
71206;SHT31;58935;54.498;18.544;2023-02-01T14:25:16;4.36;81.25
71206;SHT31;58935;54.498;18.544;2023-02-01T14:27:42;4.19;80.97
71206;SHT31;58935;54.498;18.544;2023-02-01T14:30:14;4.01;80.88
71206;SHT31;58935;54.498;18.544;2023-02-01T14:32:41;3.83;81.18
71206;SHT31;58935;54.498;18.544;2023-02-01T14:37:44;3.59;81.90
71206;SHT31;58935;54.498;18.544;2023-02-01T14:40:16;3.52;82.19
71206;SHT31;58935;54.498;18.544;2023-02-01T14:42:48;3.45;82.69
71206;SHT31;58935;54.498;18.544;2023-02-01T14:45:49;3.41;82.99
71206;SHT31;58935;54.498;18.544;2023-02-01T14:51:07;3.39;83.45
71206;SHT31;58935;54.498;18.544;2023-02-01T14:53:34;3.39;83.56
71206;SHT31;58935;54.498;18.544;2023-02-01T14:56:05;3.36;83.50
71206;SHT31;58935;54.498;18.544;2023-02-01T15:03:49;3.19;83.75
71206;SHT31;58935;54.498;18.544;2023-02-01T15:06:52;3.14;83.64
71206;SHT31;58935;54.498;18.544;2023-02-01T15:09:14;3.10;83.67
71206;SHT31;58935;54.498;18.544;2023-02-01T15:14:14;3.03;83.70
71206;SHT31;58935;54.498;18.544;2023-02-01T15:16:41;3.02;83.66
71206;SHT31;58935;54.498;18.544;2023-02-01T15:19:09;3.02;83.53
71206;SHT31;58935;54.498;18.544;2023-02-01T15:21:58;3.05;83.43
71206;SHT31;58935;54.498;18.544;2023-02-01T15:24:26;3.07;83.43
71206;SHT31;58935;54.498;18.544;2023-02-01T15:26:54;3.09;83.45
71206;SHT31;58935;54.498;18.544;2023-02-01T15:29:21;3.12;83.48
71206;SHT31;58935;54.498;18.544;2023-02-01T15:31:52;3.15;83.49
71206;SHT31;58935;54.498;18.544;2023-02-01T15:34:19;3.19;83.49
71206;SHT31;58935;54.498;18.544;2023-02-01T15:36:45;3.22;83.40
71206;SHT31;58935;54.498;18.544;2023-02-01T15:41:55;3.29;83.26
71206;SHT31;58935;54.498;18.544;2023-02-01T15:47:20;3.31;83.24
71206;SHT31;58935;54.498;18.544;2023-02-01T15:49:51;3.30;83.39
71206;SHT31;58935;54.498;18.544;2023-02-01T15:52:21;3.26;83.53
71206;SHT31;58935;54.498;18.544;2023-02-01T15:54:53;3.26;83.89
71206;SHT31;58935;54.498;18.544;2023-02-01T15:57:26;3.24;84.08
71206;SHT31;58935;54.498;18.544;2023-02-01T16:00:00;3.25;84.14
71206;SHT31;58935;54.498;18.544;2023-02-01T16:05:02;3.27;84.39
71206;SHT31;58935;54.498;18.544;2023-02-01T16:07:30;3.28;84.30
71206;SHT31;58935;54.498;18.544;2023-02-01T16:10:00;3.31;84.30
71206;SHT31;58935;54.498;18.544;2023-02-01T16:15:11;3.34;84.48
71206;SHT31;58935;54.498;18.544;2023-02-01T16:17:37;3.36;84.51
71206;SHT31;58935;54.498;18.544;2023-02-01T16:20:03;3.40;84.48
71206;SHT31;58935;54.498;18.544;2023-02-01T16:22:32;3.43;84.40
71206;SHT31;58935;54.498;18.544;2023-02-01T16:24:57;3.44;84.33
71206;SHT31;58935;54.498;18.544;2023-02-01T16:27:22;3.47;84.12
71206;SHT31;58935;54.498;18.544;2023-02-01T16:29:49;3.51;83.93
71206;SHT31;58935;54.498;18.544;2023-02-01T16:32:17;3.55;83.69
71206;SHT31;58935;54.498;18.544;2023-02-01T16:34:45;3.60;83.53
71206;SHT31;58935;54.498;18.544;2023-02-01T16:37:12;3.61;83.41
71206;SHT31;58935;54.498;18.544;2023-02-01T16:39:40;3.61;83.32
71206;SHT31;58935;54.498;18.544;2023-02-01T16:44:37;3.63;83.53
71206;SHT31;58935;54.498;18.544;2023-02-01T16:47:02;3.64;83.80
71206;SHT31;58935;54.498;18.544;2023-02-01T16:49:30;3.65;84.10
71206;SHT31;58935;54.498;18.544;2023-02-01T16:52:00;3.67;84.15
71206;SHT31;58935;54.498;18.544;2023-02-01T16:54:25;3.70;84.23
71206;SHT31;58935;54.498;18.544;2023-02-01T16:56:51;3.72;84.29
71206;SHT31;58935;54.498;18.544;2023-02-01T16:59:17;3.74;84.27
71206;SHT31;58935;54.498;18.544;2023-02-01T17:01:44;3.75;84.21
71206;SHT31;58935;54.498;18.544;2023-02-01T17:04:10;3.75;84.27
71206;SHT31;58935;54.498;18.544;2023-02-01T17:06:38;3.77;84.33
71206;SHT31;58935;54.498;18.544;2023-02-01T17:09:05;3.79;84.24
71206;SHT31;58935;54.498;18.544;2023-02-01T17:11:31;3.78;84.20
71206;SHT31;58935;54.498;18.544;2023-02-01T17:14:04;3.80;84.19
71206;SHT31;58935;54.498;18.544;2023-02-01T17:16:39;3.82;84.16
71206;SHT31;58935;54.498;18.544;2023-02-01T17:19:11;3.85;84.07
71206;SHT31;58935;54.498;18.544;2023-02-01T17:21:46;3.88;83.98
71206;SHT31;58935;54.498;18.544;2023-02-01T17:24:16;3.93;83.91
71206;SHT31;58935;54.498;18.544;2023-02-01T17:26:43;3.96;83.90
71206;SHT31;58935;54.498;18.544;2023-02-01T17:29:09;3.99;83.91
71206;SHT31;58935;54.498;18.544;2023-02-01T17:31:37;4.01;83.81
71206;SHT31;58935;54.498;18.544;2023-02-01T17:34:04;4.03;83.79
71206;SHT31;58935;54.498;18.544;2023-02-01T17:36:30;4.06;83.80
71206;SHT31;58935;54.498;18.544;2023-02-01T17:38:55;4.08;83.80
71206;SHT31;58935;54.498;18.544;2023-02-01T17:41:21;4.09;83.74
71206;SHT31;58935;54.498;18.544;2023-02-01T17:43:46;4.09;83.75
71206;SHT31;58935;54.498;18.544;2023-02-01T17:46:14;4.09;83.73
71206;SHT31;58935;54.498;18.544;2023-02-01T17:48:42;4.10;83.72
71206;SHT31;58935;54.498;18.544;2023-02-01T17:51:16;4.10;83.70
71206;SHT31;58935;54.498;18.544;2023-02-01T17:53:43;4.10;83.70